< < Back
Terminal Aerodrome Forecast


Current Version              Previous Versions:   1  2  3  4  5  6  7  8  9  

Terminal Aerodrome Forecast

508
FTUS42 KFFC 261121
TAFAHN
TAF
KAHN 261121Z 2612/2712 07007KT P6SM SCT016
      TEMPO 2612/2615 BKN016
     FM261500 09010KT P6SM SCT025
     FM261700 10009KT P6SM SCT040
     FM270200 12003KT P6SM SCT070=



Latest METAR

015
SAUS70 KWBC 261300
MTRAHN
METAR KAHN 261251Z 07007KT 10SM FEW014 BKN049 25/22 A3020 RMK AO2 SLP217
T02500217


USA.gov is the U.S. government's official web portal to all federal, state and local government web resources and services.